createdAt,value
2022-09-09T00:01:33.944Z,20.27
2022-09-09T00:04:05.451Z,20.22
2022-09-09T00:06:56.777Z,20.23
2022-09-09T00:09:26.587Z,20.22
2022-09-09T00:11:57.901Z,20.15
2022-09-09T00:14:36.145Z,20.40
2022-09-09T00:17:08.098Z,20.31
2022-09-09T00:19:56.154Z,20.16
2022-09-09T00:22:27.539Z,20.40
2022-09-09T00:25:00.157Z,20.28
2022-09-09T00:27:30.982Z,19.82
2022-09-09T00:30:24.871Z,20.14
2022-09-09T00:32:59.272Z,20.23
2022-09-09T00:35:34.005Z,20.25
2022-09-09T00:38:12.165Z,20.12
2022-09-09T00:40:46.990Z,20.10
2022-09-09T00:43:26.643Z,19.98
2022-09-09T00:46:16.158Z,19.78
2022-09-09T00:48:52.009Z,20.00
2022-09-09T00:51:59.029Z,19.92
2022-09-09T00:54:50.132Z,20.04
2022-09-09T00:57:37.313Z,20.01
2022-09-09T01:00:19.725Z,20.00
2022-09-09T01:03:37.837Z,20.28
2022-09-09T01:06:13.787Z,20.31
2022-09-09T01:09:11.254Z,20.18
2022-09-09T01:11:56.656Z,20.02
2022-09-09T01:14:29.627Z,20.04
2022-09-09T01:16:58.400Z,19.91
2022-09-09T01:20:20.979Z,20.15
2022-09-09T01:23:00.885Z,20.02
2022-09-09T01:25:29.325Z,20.07
2022-09-09T01:28:19.127Z,19.94
2022-09-09T01:30:46.211Z,19.81
2022-09-09T01:33:18.018Z,20.16
2022-09-09T01:36:07.505Z,20.05
2022-09-09T01:38:40.906Z,20.21
2022-09-09T01:41:08.024Z,20.13
2022-09-09T01:43:58.065Z,20.06
2022-09-09T01:46:26.340Z,20.08
2022-09-09T01:48:54.788Z,19.81
2022-09-09T01:51:22.159Z,19.60
2022-09-09T01:53:50.256Z,19.83
2022-09-09T01:56:42.233Z,19.99
2022-09-09T01:59:25.290Z,20.02
2022-09-09T02:02:09.039Z,20.11
2022-09-09T02:04:45.255Z,20.01
2022-09-09T02:07:29.493Z,20.00
2022-09-09T02:10:12.403Z,20.05
2022-09-09T02:12:48.446Z,20.05
2022-09-09T02:15:21.578Z,20.10
2022-09-09T02:17:51.964Z,19.87
2022-09-09T02:20:20.545Z,19.68
2022-09-09T02:22:56.140Z,19.83
2022-09-09T02:25:25.721Z,19.78
2022-09-09T02:27:54.767Z,19.83
2022-09-09T02:30:21.989Z,20.01
2022-09-09T02:32:58.047Z,19.57
2022-09-09T02:35:38.642Z,19.55
2022-09-09T02:38:09.432Z,19.68
2022-09-09T02:40:37.026Z,19.57
2022-09-09T02:43:04.484Z,19.46
2022-09-09T02:45:43.256Z,19.76
2022-09-09T02:48:11.293Z,19.96
2022-09-09T02:51:11.018Z,19.90
2022-09-09T02:53:49.505Z,19.60
2022-09-09T02:56:19.843Z,19.84
2022-09-09T02:58:48.784Z,19.64
2022-09-09T03:01:15.631Z,19.93
2022-09-09T03:03:43.394Z,19.98
2022-09-09T03:06:14.065Z,19.73
2022-09-09T03:08:43.421Z,19.50
2022-09-09T03:11:18.212Z,19.76
2022-09-09T03:13:45.798Z,19.74
2022-09-09T03:16:13.071Z,19.57
2022-09-09T03:18:46.693Z,19.60
2022-09-09T03:21:13.529Z,19.45
2022-09-09T03:23:41.494Z,19.44
2022-09-09T03:26:08.845Z,19.35
2022-09-09T03:28:41.143Z,19.32
2022-09-09T03:31:11.420Z,19.42
2022-09-09T03:33:42.323Z,19.57
2022-09-09T03:36:12.394Z,19.16
2022-09-09T03:38:39.348Z,19.13
2022-09-09T03:41:07.104Z,19.19
2022-09-09T03:43:33.914Z,19.39
2022-09-09T03:46:01.128Z,19.30
2022-09-09T03:48:30.016Z,19.11
2022-09-09T03:50:58.934Z,19.41
2022-09-09T03:53:26.790Z,19.13
2022-09-09T03:55:55.706Z,19.36
2022-09-09T03:58:25.200Z,18.97
2022-09-09T04:01:01.876Z,19.16
2022-09-09T04:03:29.237Z,19.17
2022-09-09T04:05:58.142Z,19.11
2022-09-09T04:08:26.970Z,19.24
2022-09-09T04:10:59.139Z,19.05
2022-09-09T04:13:28.511Z,19.15
2022-09-09T04:15:58.852Z,19.02
2022-09-09T04:18:27.018Z,19.13
2022-09-09T04:20:54.192Z,19.28
2022-09-09T04:23:25.153Z,18.98
2022-09-09T04:25:55.939Z,19.02
2022-09-09T04:28:25.242Z,19.28
2022-09-09T04:30:53.412Z,19.00
2022-09-09T04:33:20.671Z,18.93
2022-09-09T04:35:51.202Z,18.99
2022-09-09T04:38:19.638Z,18.98
2022-09-09T04:40:50.822Z,19.25
2022-09-09T04:43:17.528Z,19.17
2022-09-09T04:45:45.199Z,19.09
2022-09-09T04:48:11.990Z,19.24
2022-09-09T04:50:39.426Z,19.16
2022-09-09T04:53:06.759Z,19.03
2022-09-09T04:55:38.639Z,19.30
2022-09-09T04:58:06.913Z,19.07
2022-09-09T05:00:35.015Z,19.14
2022-09-09T05:03:05.655Z,19.08
2022-09-09T05:05:35.222Z,18.76
2022-09-09T05:08:06.918Z,18.79
2022-09-09T05:10:34.796Z,18.65
2022-09-09T05:13:01.617Z,18.66
2022-09-09T05:15:30.535Z,18.98
2022-09-09T05:18:01.632Z,18.95
2022-09-09T05:20:30.673Z,18.71
2022-09-09T05:22:58.000Z,18.64
2022-09-09T05:25:30.309Z,18.67
2022-09-09T05:27:57.504Z,18.91
2022-09-09T05:30:24.235Z,19.17
2022-09-09T05:32:52.114Z,19.11
2022-09-09T05:35:20.240Z,19.01
2022-09-09T05:37:47.134Z,19.27
2022-09-09T05:40:14.625Z,18.90
2022-09-09T05:42:41.918Z,18.94
2022-09-09T05:45:10.186Z,19.04
2022-09-09T05:47:38.389Z,19.28
2022-09-09T05:50:08.661Z,19.23
2022-09-09T05:52:36.075Z,19.42
2022-09-09T05:55:05.592Z,19.75
2022-09-09T05:57:32.421Z,19.68
2022-09-09T05:59:59.164Z,20.01
2022-09-09T06:02:26.036Z,19.53
2022-09-09T06:04:53.790Z,19.69
2022-09-09T06:07:23.790Z,19.73
2022-09-09T06:09:52.435Z,19.48
2022-09-09T06:12:19.220Z,19.65
2022-09-09T06:14:47.208Z,19.59
2022-09-09T06:17:15.362Z,19.22
2022-09-09T06:19:42.102Z,19.43
2022-09-09T06:22:09.994Z,19.68
2022-09-09T06:24:37.458Z,19.22
2022-09-09T06:27:04.568Z,19.23
2022-09-09T06:29:34.801Z,19.21
2022-09-09T06:32:03.400Z,19.48
2022-09-09T06:34:31.294Z,19.63
2022-09-09T06:36:59.362Z,19.55
2022-09-09T06:39:32.935Z,19.41
2022-09-09T06:42:03.451Z,19.69
2022-09-09T06:44:49.143Z,19.67
2022-09-09T06:47:26.144Z,19.74
2022-09-09T06:49:53.782Z,20.09
2022-09-09T06:52:25.104Z,19.73
2022-09-09T06:54:52.189Z,19.57
2022-09-09T06:57:36.395Z,19.52
2022-09-09T07:00:07.363Z,19.37
2022-09-09T07:02:39.922Z,19.41
2022-09-09T07:05:09.193Z,19.35
2022-09-09T07:07:38.337Z,19.66
2022-09-09T07:10:06.528Z,19.22
2022-09-09T07:12:33.785Z,19.81
2022-09-09T07:15:01.770Z,19.23
2022-09-09T07:17:30.143Z,19.07
2022-09-09T07:19:57.838Z,19.50
2022-09-09T07:22:24.583Z,19.27
2022-09-09T07:24:51.368Z,19.17
2022-09-09T07:27:19.066Z,19.34
2022-09-09T07:29:47.584Z,19.57
2022-09-09T07:32:14.609Z,19.48
2022-09-09T07:34:41.292Z,19.37
2022-09-09T07:37:08.090Z,19.57
2022-09-09T07:39:36.213Z,19.60
2022-09-09T07:42:02.964Z,19.34
2022-09-09T07:44:29.804Z,19.65
2022-09-09T07:47:04.580Z,19.74
2022-09-09T07:49:38.667Z,19.29
2022-09-09T07:54:41.742Z,19.44
2022-09-09T07:57:08.792Z,19.21
2022-09-09T07:59:38.044Z,19.27
2022-09-09T08:02:05.577Z,19.84
2022-09-09T08:04:34.650Z,19.62
2022-09-09T08:07:04.078Z,19.66
2022-09-09T08:09:38.037Z,19.62
2022-09-09T08:12:11.796Z,19.66
2022-09-09T08:14:39.155Z,19.54
2022-09-09T08:17:05.935Z,19.47
2022-09-09T08:19:36.972Z,19.71
2022-09-09T08:22:08.816Z,19.74
2022-09-09T08:24:37.272Z,19.98
2022-09-09T08:27:04.250Z,20.21
2022-09-09T08:29:31.087Z,20.67
2022-09-09T08:31:58.891Z,20.30
2022-09-09T08:34:27.967Z,20.69
2022-09-09T08:36:56.611Z,20.59
2022-09-09T08:39:29.819Z,20.12
2022-09-09T08:42:32.313Z,20.08
2022-09-09T08:45:25.883Z,19.91
2022-09-09T08:47:59.227Z,20.25
2022-09-09T08:50:41.437Z,20.18
2022-09-09T08:53:31.318Z,19.68
2022-09-09T08:56:00.420Z,19.90
2022-09-09T08:58:51.104Z,19.97
2022-09-09T09:02:06.559Z,19.56
2022-09-09T09:04:49.999Z,19.41
2022-09-09T09:07:37.067Z,19.83
2022-09-09T09:10:30.517Z,19.58
2022-09-09T09:12:57.353Z,19.82
2022-09-09T09:15:29.455Z,19.98
2022-09-09T09:17:59.151Z,20.11
2022-09-09T09:20:39.840Z,19.82
2022-09-09T09:23:07.821Z,20.03
2022-09-09T09:25:40.945Z,19.98
2022-09-09T09:28:20.474Z,19.85
2022-09-09T09:31:09.522Z,20.01
2022-09-09T09:33:57.060Z,20.12
2022-09-09T09:36:35.826Z,20.05
2022-09-09T09:41:54.250Z,20.22
2022-09-09T09:44:29.743Z,20.36
2022-09-09T09:47:08.721Z,20.43
2022-09-09T09:49:36.201Z,19.92
2022-09-09T09:52:04.207Z,19.80
2022-09-09T09:54:35.015Z,20.00
2022-09-09T09:57:14.250Z,20.05
2022-09-09T09:59:42.578Z,19.81
2022-09-09T10:02:26.702Z,19.87
2022-09-09T10:05:13.853Z,19.89
2022-09-09T10:07:46.915Z,19.58
2022-09-09T10:10:19.243Z,19.87
2022-09-09T10:12:57.803Z,19.52
2022-09-09T10:15:33.172Z,19.97
2022-09-09T10:18:18.228Z,19.78
2022-09-09T10:20:47.884Z,19.77
2022-09-09T10:23:26.596Z,20.08
2022-09-09T10:26:17.728Z,19.48
2022-09-09T10:28:53.986Z,19.91
2022-09-09T10:31:46.993Z,20.02
2022-09-09T10:34:46.085Z,20.41
2022-09-09T10:37:28.408Z,20.03
2022-09-09T10:40:15.129Z,20.08
2022-09-09T10:42:43.583Z,19.98
2022-09-09T10:45:20.323Z,20.00
2022-09-09T10:47:54.266Z,20.29
2022-09-09T10:51:00.077Z,20.41
2022-09-09T10:53:30.254Z,20.40
2022-09-09T10:56:09.789Z,20.07
2022-09-09T10:58:44.146Z,20.22
2022-09-09T11:01:32.777Z,20.05
2022-09-09T11:04:15.079Z,20.34
2022-09-09T11:06:46.142Z,20.25
2022-09-09T11:09:21.317Z,20.48
2022-09-09T11:11:55.748Z,20.61
2022-09-09T11:14:44.640Z,20.55
2022-09-09T11:17:15.187Z,20.40
2022-09-09T11:19:43.850Z,20.26
2022-09-09T11:22:46.061Z,20.47
2022-09-09T11:25:18.985Z,21.00
2022-09-09T11:28:07.709Z,21.19
2022-09-09T11:30:57.368Z,21.15
2022-09-09T11:34:03.093Z,21.03
2022-09-09T11:36:48.483Z,21.30
2022-09-09T11:39:44.022Z,21.36
2022-09-09T11:42:13.669Z,21.42
2022-09-09T11:44:40.767Z,21.45
2022-09-09T11:47:27.461Z,21.69
2022-09-09T11:49:55.130Z,21.61
2022-09-09T11:55:33.907Z,21.60
2022-09-09T11:58:01.861Z,21.86
2022-09-09T12:00:44.850Z,21.34
2022-09-09T12:03:43.929Z,21.44
2022-09-09T12:06:20.847Z,21.57
2022-09-09T12:08:53.911Z,21.60
2022-09-09T12:11:29.045Z,21.59
2022-09-09T12:13:57.505Z,21.36
2022-09-09T12:16:39.574Z,21.97
2022-09-09T12:19:22.063Z,21.66
2022-09-09T12:22:04.433Z,21.50
2022-09-09T12:24:39.551Z,21.83
2022-09-09T12:27:06.190Z,21.74
2022-09-09T12:29:56.084Z,21.93
2022-09-09T12:32:26.766Z,21.62
2022-09-09T12:34:57.601Z,21.65
2022-09-09T12:37:35.578Z,21.41
2022-09-09T12:40:21.580Z,21.55
2022-09-09T12:42:48.388Z,21.72
2022-09-09T12:45:19.626Z,22.15
2022-09-09T12:47:57.699Z,21.76
2022-09-09T12:50:27.152Z,21.68
2022-09-09T12:53:00.343Z,21.57
2022-09-09T12:55:34.374Z,22.20
2022-09-09T12:58:05.584Z,21.93
2022-09-09T13:00:33.263Z,21.58
2022-09-09T13:03:02.616Z,21.84
2022-09-09T13:05:36.502Z,21.45
2022-09-09T13:08:11.513Z,22.05
2022-09-09T13:10:58.726Z,22.02
2022-09-09T13:13:41.773Z,21.87
2022-09-09T13:16:24.163Z,21.98
2022-09-09T13:18:54.022Z,22.44
2022-09-09T13:21:21.044Z,22.12
2022-09-09T13:23:53.406Z,21.95
2022-09-09T13:26:23.725Z,22.44
2022-09-09T13:28:50.758Z,22.09
2022-09-09T13:31:31.503Z,21.79
2022-09-09T13:33:58.571Z,21.98
2022-09-09T13:36:35.439Z,21.91
2022-09-09T13:39:04.556Z,22.19
2022-09-09T13:41:35.065Z,22.12
2022-09-09T13:44:03.174Z,22.11
2022-09-09T13:46:41.374Z,22.42
2022-09-09T13:49:09.747Z,22.59
2022-09-09T13:52:03.053Z,22.21
2022-09-09T13:54:31.784Z,22.36
2022-09-09T13:56:58.490Z,22.32
2022-09-09T13:59:30.741Z,22.43
2022-09-09T14:02:09.387Z,22.84
2022-09-09T14:04:36.095Z,22.08
2022-09-09T14:07:03.578Z,22.46
2022-09-09T14:09:30.263Z,22.09
2022-09-09T14:11:56.929Z,22.03
2022-09-09T14:14:23.690Z,22.46
2022-09-09T14:16:50.452Z,22.71
2022-09-09T14:19:17.616Z,22.68
2022-09-09T14:21:44.259Z,22.35
2022-09-09T14:24:10.968Z,22.06
2022-09-09T14:26:37.815Z,22.38
2022-09-09T14:29:04.638Z,22.12
2022-09-09T14:31:31.372Z,22.13
2022-09-09T14:33:58.726Z,22.17
2022-09-09T14:36:25.664Z,22.59
2022-09-09T14:38:52.978Z,22.38
2022-09-09T14:41:21.098Z,22.51
2022-09-09T14:43:47.920Z,22.03
2022-09-09T14:46:16.741Z,21.89
2022-09-09T14:48:45.051Z,22.23
2022-09-09T14:51:13.993Z,22.08
2022-09-09T14:53:41.406Z,22.23
2022-09-09T14:56:10.402Z,22.46
2022-09-09T14:58:38.925Z,22.08
2022-09-09T15:01:07.818Z,22.40
2022-09-09T15:03:35.455Z,22.32
2022-09-09T15:06:15.549Z,22.49
2022-09-09T15:08:43.811Z,23.02
2022-09-09T15:11:12.544Z,22.97
2022-09-09T15:13:41.391Z,22.80
2022-09-09T15:16:13.960Z,22.69
2022-09-09T15:18:43.731Z,22.84
2022-09-09T15:21:15.735Z,22.47
2022-09-09T15:23:43.046Z,22.38
2022-09-09T15:26:10.194Z,22.46
2022-09-09T15:28:38.985Z,22.06
2022-09-09T15:31:15.537Z,22.54
2022-09-09T15:33:42.546Z,22.18
2022-09-09T15:36:22.960Z,22.33
2022-09-09T15:38:50.828Z,22.49
2022-09-09T15:41:18.779Z,22.94
2022-09-09T15:43:51.125Z,22.39
2022-09-09T15:46:17.808Z,22.48
2022-09-09T15:48:50.031Z,22.34
2022-09-09T15:51:41.159Z,22.50
2022-09-09T15:54:06.926Z,22.22
2022-09-09T15:56:34.354Z,22.49
2022-09-09T15:59:02.371Z,22.23
2022-09-09T16:01:29.823Z,22.52
2022-09-09T16:03:56.630Z,22.30
2022-09-09T16:06:25.566Z,21.92
2022-09-09T16:08:54.170Z,22.71
2022-09-09T16:11:25.535Z,22.39
2022-09-09T16:13:53.900Z,22.25
2022-09-09T16:16:23.099Z,22.39
2022-09-09T16:18:52.915Z,22.52
2022-09-09T16:21:27.092Z,22.37
2022-09-09T16:23:57.056Z,21.84
2022-09-09T16:26:24.327Z,21.85
2022-09-09T16:28:55.223Z,22.22
2022-09-09T16:31:24.279Z,22.46
2022-09-09T16:36:44.207Z,22.31
2022-09-09T16:39:13.277Z,21.99
2022-09-09T16:41:40.972Z,22.11
2022-09-09T16:44:09.686Z,21.88
2022-09-09T16:46:39.767Z,21.79
2022-09-09T16:49:08.355Z,21.82
2022-09-09T16:51:38.128Z,21.66
2022-09-09T16:54:07.962Z,21.63
2022-09-09T16:56:42.209Z,21.24
2022-09-09T16:59:11.907Z,21.26
2022-09-09T17:01:41.627Z,21.37
2022-09-09T17:04:14.859Z,20.77
2022-09-09T17:06:42.471Z,20.93
2022-09-09T17:09:10.833Z,20.72
2022-09-09T17:11:39.422Z,21.10
2022-09-09T17:14:08.155Z,20.84
2022-09-09T17:16:37.867Z,21.08
2022-09-09T17:19:05.332Z,20.55
2022-09-09T17:21:33.082Z,21.17
2022-09-09T17:24:00.015Z,21.26
2022-09-09T17:26:29.483Z,21.32
2022-09-09T17:28:59.810Z,21.41
2022-09-09T17:31:27.416Z,21.57
2022-09-09T17:33:54.805Z,21.36
2022-09-09T17:36:33.337Z,20.90
2022-09-09T17:39:01.192Z,21.18
2022-09-09T17:41:39.033Z,21.43
2022-09-09T17:46:37.664Z,20.79
2022-09-09T17:49:07.529Z,20.71
2022-09-09T17:51:34.956Z,21.16
2022-09-09T17:54:21.167Z,20.52
2022-09-09T17:56:49.306Z,20.44
2022-09-09T17:59:17.572Z,20.45
2022-09-09T18:01:46.905Z,20.83
2022-09-09T18:04:15.686Z,20.86
2022-09-09T18:06:45.479Z,20.88
2022-09-09T18:09:15.300Z,20.78
2022-09-09T18:11:45.444Z,20.61
2022-09-09T18:14:15.742Z,20.79
2022-09-09T18:16:42.510Z,20.99
2022-09-09T18:19:13.980Z,20.96
2022-09-09T18:21:42.178Z,20.73
2022-09-09T18:24:10.624Z,20.89
2022-09-09T18:26:39.499Z,20.72
2022-09-09T18:29:08.489Z,20.95
2022-09-09T18:31:37.814Z,21.22
2022-09-09T18:34:07.390Z,20.89
2022-09-09T18:36:42.433Z,20.85
2022-09-09T18:39:09.577Z,20.71
2022-09-09T18:41:38.929Z,20.77
2022-09-09T18:44:09.511Z,20.79
2022-09-09T18:46:37.520Z,20.57
2022-09-09T18:49:05.711Z,20.65
2022-09-09T18:51:35.286Z,20.97
2022-09-09T18:54:09.480Z,20.65
2022-09-09T18:56:39.905Z,20.63
2022-09-09T18:59:08.593Z,20.43
2022-09-09T19:01:38.421Z,20.65
2022-09-09T19:04:06.800Z,20.78
2022-09-09T19:06:37.311Z,20.82
2022-09-09T19:09:05.026Z,20.80
2022-09-09T19:11:33.287Z,20.92
2022-09-09T19:14:03.064Z,20.98
2022-09-09T19:16:33.917Z,20.64
2022-09-09T19:19:03.123Z,20.77
2022-09-09T19:21:38.267Z,20.64
2022-09-09T19:24:21.468Z,20.62
2022-09-09T19:26:52.600Z,20.71
2022-09-09T19:29:22.127Z,20.63
2022-09-09T19:32:36.514Z,20.82
2022-09-09T19:34:44.160Z,20.86
2022-09-09T19:37:14.089Z,20.85
2022-09-09T19:39:43.359Z,20.68
2022-09-09T19:42:10.535Z,20.84
2022-09-09T19:44:37.573Z,20.80
2022-09-09T19:47:05.003Z,20.61
2022-09-09T19:49:32.247Z,20.81
2022-09-09T19:51:59.744Z,20.95
2022-09-09T19:54:26.747Z,21.03
2022-09-09T19:56:53.599Z,20.59
2022-09-09T19:59:21.000Z,20.89
2022-09-09T20:01:47.886Z,20.64
2022-09-09T20:04:15.289Z,20.85
2022-09-09T20:06:44.120Z,20.89
2022-09-09T20:09:14.809Z,20.22
2022-09-09T20:11:43.158Z,20.48
2022-09-09T20:14:10.508Z,20.31
2022-09-09T20:16:37.613Z,19.97
2022-09-09T20:19:06.972Z,20.06
2022-09-09T20:21:36.031Z,20.13
2022-09-09T20:24:06.033Z,20.17
2022-09-09T20:26:37.623Z,20.06
2022-09-09T20:29:07.795Z,20.03
2022-09-09T20:31:36.536Z,19.94
2022-09-09T20:34:04.530Z,20.16
2022-09-09T20:36:33.731Z,20.34
2022-09-09T20:39:02.468Z,19.92
2022-09-09T20:41:31.814Z,20.28
2022-09-09T20:44:03.801Z,19.83
2022-09-09T20:46:33.940Z,20.25
2022-09-09T20:49:03.197Z,20.40
2022-09-09T20:51:33.041Z,20.19
2022-09-09T20:54:08.718Z,20.07
2022-09-09T20:56:39.394Z,19.99
2022-09-09T20:59:07.976Z,19.91
2022-09-09T21:01:36.705Z,20.28
2022-09-09T21:04:03.722Z,20.25
2022-09-09T21:06:30.568Z,20.15
2022-09-09T21:08:57.842Z,19.98
2022-09-09T21:11:24.781Z,20.18
2022-09-09T21:13:51.470Z,20.03
2022-09-09T21:16:22.006Z,19.63
2022-09-09T21:18:49.690Z,19.76
2022-09-09T21:21:19.288Z,20.08
2022-09-09T21:23:46.063Z,19.85
2022-09-09T21:26:13.058Z,19.93
2022-09-09T21:28:40.230Z,19.77
2022-09-09T21:31:07.317Z,19.63
2022-09-09T21:33:34.625Z,19.75
2022-09-09T21:36:06.328Z,20.02
2022-09-09T21:38:33.653Z,19.68
2022-09-09T21:41:05.278Z,19.87
2022-09-09T21:43:32.628Z,20.00
2022-09-09T21:45:59.594Z,19.93
2022-09-09T21:48:26.487Z,19.61
2022-09-09T21:50:54.416Z,19.84
2022-09-09T21:53:21.275Z,19.96
2022-09-09T21:55:49.058Z,19.70
2022-09-09T21:58:16.827Z,19.63
2022-09-09T22:00:45.788Z,19.64
2022-09-09T22:03:17.915Z,19.96
2022-09-09T22:05:51.918Z,20.01
2022-09-09T22:08:20.946Z,19.77
2022-09-09T22:10:47.902Z,19.69
2022-09-09T22:13:16.012Z,19.50
2022-09-09T22:15:46.874Z,19.60
2022-09-09T22:18:15.974Z,19.84
2022-09-09T22:20:44.158Z,19.97
2022-09-09T22:23:12.496Z,19.38
2022-09-09T22:25:39.811Z,19.57
2022-09-09T22:28:09.089Z,19.34
2022-09-09T22:30:35.943Z,19.37
2022-09-09T22:33:02.766Z,19.27
2022-09-09T22:35:29.683Z,19.71
2022-09-09T22:37:57.337Z,19.57
2022-09-09T22:40:24.290Z,19.87
2022-09-09T22:42:52.996Z,19.56
2022-09-09T22:45:21.611Z,19.34
2022-09-09T22:47:48.496Z,19.90
2022-09-09T22:50:15.317Z,19.65
2022-09-09T22:52:42.457Z,20.05
2022-09-09T22:55:09.483Z,19.71
2022-09-09T22:57:37.362Z,19.72
2022-09-09T23:00:09.244Z,19.73
2022-09-09T23:02:40.949Z,19.64
2022-09-09T23:05:08.842Z,19.66
2022-09-09T23:07:36.756Z,19.73
2022-09-09T23:10:07.170Z,19.67
2022-09-09T23:12:34.201Z,19.86
2022-09-09T23:15:01.077Z,19.89
2022-09-09T23:17:28.036Z,19.79
2022-09-09T23:19:56.716Z,20.05
2022-09-09T23:22:24.506Z,19.93
2022-09-09T23:24:52.789Z,19.56
2022-09-09T23:27:21.483Z,20.02
2022-09-09T23:29:49.106Z,19.93
2022-09-09T23:32:15.955Z,19.66
2022-09-09T23:34:42.777Z,19.99
2022-09-09T23:37:11.150Z,19.91
2022-09-09T23:39:40.338Z,19.97
2022-09-09T23:42:08.163Z,19.75
2022-09-09T23:44:36.588Z,20.00
2022-09-09T23:47:04.214Z,19.91
2022-09-09T23:49:31.449Z,19.66
2022-09-09T23:51:58.146Z,19.94
2022-09-09T23:54:25.109Z,19.89
2022-09-09T23:56:51.991Z,19.56
2022-09-09T23:59:18.854Z,19.92
